Terminal Aerodrome Forecast
Issued by NWS Houston/Galveston TX

Home | Current Version | Previous Version | Text Only | Print | Product List | Glossary On
Versions: 1 2 3 4 5 6 7 8 9 10 11 12 13 14 15 16 17 18 19 20 21 22 23 24 25 26 27 28
000
FTUS44 KHGX 171557 AAC
TAFHOU
TAF AMD
KHOU 171557Z 1716/1812 08015KT P6SM SCT012 BKN120
      TEMPO 1716/1718 BKN012
     FM172100 10013KT P6SM SCT035 BKN070
     FM180200 08004KT P6SM SCT020 BKN050
     FM181100 02007KT P6SM SCT015 BKN040=

USA.gov is the U.S. government's official web portal to all federal, state and local government web resources and services.